RKPK/PUS METAR and TAF weather

Enter ICAO airport designator
Station Type Date Time Source
RKPK METAR 2020/07/11 20:00 UTC NOAA

RKPK 112000Z 01007KT 9999 SCT020 BKN200 22/18 Q1011


Station Type Date Time Source
RKPK Decoded METAR 2020/07/11 20:00 UTC NOAA

Pusan / Kimhae International Airport, Korea, South (RKPK) 35-11N 128-56E 6M
Jul 11, 2020 - 04:00 PM EDT / 2020.07.11 2000 UTC
Wind: from the N (010 degrees) at 8 MPH (7 KT):0
Visibility: greater than 7 mile(s):0
Sky conditions: mostly cloudy
Temperature: 71 F (22 C)
Dew Point: 64 F (18 C)
Relative Humidity: 78%
Pressure (altimeter): 29.85 in. Hg (1011 hPa)
ob: RKPK 112000Z 01007KT 9999 SCT020 BKN200 22/18 Q1011
cycle: 20

Station Type Date Time Source
RKPK TAF 2020/07/11 23:50 UTC NOAA

TAF
AMD RKPK 102320Z 1023/1124 24006KT 3200 BR SCT015 BKN030 TX28/1106Z TN21/1120Z
BECMG 1100/1101 4800 BKN030 BKN200
BECMG 1102/1103 11006KT

Example: see airport list